sensor_id;sensor_type;location;lat;lon;timestamp;temperature;humidity
57833;DHT22;43667;53.036;6.740;2023-05-07T00:01:28;12.40;99.90
57833;DHT22;43667;53.036;6.740;2023-05-07T00:03:53;12.40;99.90
57833;DHT22;43667;53.036;6.740;2023-05-07T00:06:19;12.50;99.90
57833;DHT22;43667;53.036;6.740;2023-05-07T00:08:45;12.40;99.90
57833;DHT22;43667;53.036;6.740;2023-05-07T00:11:10;12.40;99.90
57833;DHT22;43667;53.036;6.740;2023-05-07T00:13:36;12.40;99.90
57833;DHT22;43667;53.036;6.740;2023-05-07T00:16:02;13.00;99.90
57833;DHT22;43667;53.036;6.740;2023-05-07T00:18:28;12.30;99.90
57833;DHT22;43667;53.036;6.740;2023-05-07T00:20:54;12.50;99.90
57833;DHT22;43667;53.036;6.740;2023-05-07T00:23:19;12.20;99.90
57833;DHT22;43667;53.036;6.740;2023-05-07T00:25:45;12.20;99.90
57833;DHT22;43667;53.036;6.740;2023-05-07T00:28:13;12.20;99.90
57833;DHT22;43667;53.036;6.740;2023-05-07T00:30:39;12.20;99.90
57833;DHT22;43667;53.036;6.740;2023-05-07T00:33:04;12.20;99.90
57833;DHT22;43667;53.036;6.740;2023-05-07T00:35:30;12.10;99.90
57833;DHT22;43667;53.036;6.740;2023-05-07T00:37:56;12.10;99.90
57833;DHT22;43667;53.036;6.740;2023-05-07T00:40:21;12.10;99.90
57833;DHT22;43667;53.036;6.740;2023-05-07T00:42:47;12.10;99.90
57833;DHT22;43667;53.036;6.740;2023-05-07T00:45:14;12.10;99.90
57833;DHT22;43667;53.036;6.740;2023-05-07T00:47:40;12.10;99.90
57833;DHT22;43667;53.036;6.740;2023-05-07T00:50:08;12.10;99.90
57833;DHT22;43667;53.036;6.740;2023-05-07T00:52:34;12.10;99.90
57833;DHT22;43667;53.036;6.740;2023-05-07T00:55:04;12.00;99.90
57833;DHT22;43667;53.036;6.740;2023-05-07T00:57:41;12.00;99.90
57833;DHT22;43667;53.036;6.740;2023-05-07T01:00:08;12.00;99.90
57833;DHT22;43667;53.036;6.740;2023-05-07T01:02:38;12.00;99.90
57833;DHT22;43667;53.036;6.740;2023-05-07T01:05:06;12.00;99.90
57833;DHT22;43667;53.036;6.740;2023-05-07T01:07:33;12.00;99.90
57833;DHT22;43667;53.036;6.740;2023-05-07T01:10:00;11.90;99.90
57833;DHT22;43667;53.036;6.740;2023-05-07T01:12:27;11.90;99.90
57833;DHT22;43667;53.036;6.740;2023-05-07T01:14:54;11.90;99.90
57833;DHT22;43667;53.036;6.740;2023-05-07T01:17:19;11.90;99.90
57833;DHT22;43667;53.036;6.740;2023-05-07T01:19:45;11.90;99.90
57833;DHT22;43667;53.036;6.740;2023-05-07T01:22:11;11.80;99.90
57833;DHT22;43667;53.036;6.740;2023-05-07T01:24:40;11.80;99.90
57833;DHT22;43667;53.036;6.740;2023-05-07T01:27:06;11.80;99.90
57833;DHT22;43667;53.036;6.740;2023-05-07T01:29:31;11.80;99.90
57833;DHT22;43667;53.036;6.740;2023-05-07T01:31:59;11.70;99.90
57833;DHT22;43667;53.036;6.740;2023-05-07T01:34:27;11.70;99.90
57833;DHT22;43667;53.036;6.740;2023-05-07T01:36:54;11.60;99.90
57833;DHT22;43667;53.036;6.740;2023-05-07T01:39:23;11.60;99.90
57833;DHT22;43667;53.036;6.740;2023-05-07T01:41:50;11.50;99.90
57833;DHT22;43667;53.036;6.740;2023-05-07T01:44:16;11.50;99.90
57833;DHT22;43667;53.036;6.740;2023-05-07T01:46:43;11.50;99.90
57833;DHT22;43667;53.036;6.740;2023-05-07T01:49:09;11.50;99.90
57833;DHT22;43667;53.036;6.740;2023-05-07T01:51:35;11.40;99.90
57833;DHT22;43667;53.036;6.740;2023-05-07T01:54:01;11.50;99.90
57833;DHT22;43667;53.036;6.740;2023-05-07T01:56:27;11.40;99.90
57833;DHT22;43667;53.036;6.740;2023-05-07T01:58:52;11.40;99.90
57833;DHT22;43667;53.036;6.740;2023-05-07T02:01:18;11.40;99.90
57833;DHT22;43667;53.036;6.740;2023-05-07T02:03:44;11.30;99.90
57833;DHT22;43667;53.036;6.740;2023-05-07T02:06:10;11.30;99.90
57833;DHT22;43667;53.036;6.740;2023-05-07T02:08:35;11.30;99.90
57833;DHT22;43667;53.036;6.740;2023-05-07T02:11:01;11.30;99.90
57833;DHT22;43667;53.036;6.740;2023-05-07T02:13:32;11.40;99.90
57833;DHT22;43667;53.036;6.740;2023-05-07T02:15:58;11.30;99.90
57833;DHT22;43667;53.036;6.740;2023-05-07T02:18:24;11.30;99.90
57833;DHT22;43667;53.036;6.740;2023-05-07T02:20:50;11.30;99.90
57833;DHT22;43667;53.036;6.740;2023-05-07T02:23:15;11.20;99.90
57833;DHT22;43667;53.036;6.740;2023-05-07T02:25:41;11.20;99.90
57833;DHT22;43667;53.036;6.740;2023-05-07T02:28:06;11.20;99.90
57833;DHT22;43667;53.036;6.740;2023-05-07T02:30:32;11.10;99.90
57833;DHT22;43667;53.036;6.740;2023-05-07T02:32:58;11.10;99.90
57833;DHT22;43667;53.036;6.740;2023-05-07T02:35:25;11.10;99.90
57833;DHT22;43667;53.036;6.740;2023-05-07T02:37:51;11.10;99.90
57833;DHT22;43667;53.036;6.740;2023-05-07T02:40:17;11.10;99.90
57833;DHT22;43667;53.036;6.740;2023-05-07T02:42:42;11.10;99.90
57833;DHT22;43667;53.036;6.740;2023-05-07T02:45:08;11.10;99.90
57833;DHT22;43667;53.036;6.740;2023-05-07T02:47:34;11.10;99.90
57833;DHT22;43667;53.036;6.740;2023-05-07T02:50:00;11.10;99.90
57833;DHT22;43667;53.036;6.740;2023-05-07T02:52:25;11.00;99.90
57833;DHT22;43667;53.036;6.740;2023-05-07T02:54:51;11.10;99.90
57833;DHT22;43667;53.036;6.740;2023-05-07T02:57:16;11.10;99.90
57833;DHT22;43667;53.036;6.740;2023-05-07T02:59:42;11.10;99.90
57833;DHT22;43667;53.036;6.740;2023-05-07T03:02:08;11.10;99.90
57833;DHT22;43667;53.036;6.740;2023-05-07T03:04:33;11.10;99.90
57833;DHT22;43667;53.036;6.740;2023-05-07T03:06:59;11.10;99.90
57833;DHT22;43667;53.036;6.740;2023-05-07T03:09:25;11.10;99.90
57833;DHT22;43667;53.036;6.740;2023-05-07T03:11:51;11.10;99.90
57833;DHT22;43667;53.036;6.740;2023-05-07T03:14:16;11.00;99.90
57833;DHT22;43667;53.036;6.740;2023-05-07T03:16:42;11.00;99.90
57833;DHT22;43667;53.036;6.740;2023-05-07T03:19:08;11.10;99.90
57833;DHT22;43667;53.036;6.740;2023-05-07T03:21:36;11.00;99.90
57833;DHT22;43667;53.036;6.740;2023-05-07T03:24:02;11.00;99.90
57833;DHT22;43667;53.036;6.740;2023-05-07T03:26:27;11.00;99.90
57833;DHT22;43667;53.036;6.740;2023-05-07T03:28:53;11.00;99.90
57833;DHT22;43667;53.036;6.740;2023-05-07T03:31:19;11.00;99.90
57833;DHT22;43667;53.036;6.740;2023-05-07T03:33:55;10.90;99.90
57833;DHT22;43667;53.036;6.740;2023-05-07T03:36:21;11.00;99.90
57833;DHT22;43667;53.036;6.740;2023-05-07T03:38:48;10.90;99.90
57833;DHT22;43667;53.036;6.740;2023-05-07T03:41:14;10.90;99.90
57833;DHT22;43667;53.036;6.740;2023-05-07T03:43:39;10.90;99.90
57833;DHT22;43667;53.036;6.740;2023-05-07T03:46:05;10.80;99.90
57833;DHT22;43667;53.036;6.740;2023-05-07T03:48:31;10.90;99.90
57833;DHT22;43667;53.036;6.740;2023-05-07T03:50:57;10.80;99.90
57833;DHT22;43667;53.036;6.740;2023-05-07T03:53:23;10.80;99.90
57833;DHT22;43667;53.036;6.740;2023-05-07T03:55:49;10.70;99.90
57833;DHT22;43667;53.036;6.740;2023-05-07T03:58:15;10.70;99.90
57833;DHT22;43667;53.036;6.740;2023-05-07T04:00:41;10.70;99.90
57833;DHT22;43667;53.036;6.740;2023-05-07T04:03:06;10.70;99.90
57833;DHT22;43667;53.036;6.740;2023-05-07T04:05:32;10.70;99.90
57833;DHT22;43667;53.036;6.740;2023-05-07T04:07:58;10.70;99.90
57833;DHT22;43667;53.036;6.740;2023-05-07T04:10:25;10.70;99.90
57833;DHT22;43667;53.036;6.740;2023-05-07T04:12:50;10.70;99.90
57833;DHT22;43667;53.036;6.740;2023-05-07T04:15:16;10.70;99.90
57833;DHT22;43667;53.036;6.740;2023-05-07T04:17:42;10.70;99.90
57833;DHT22;43667;53.036;6.740;2023-05-07T04:20:14;10.70;99.90
57833;DHT22;43667;53.036;6.740;2023-05-07T04:22:40;10.70;99.90
57833;DHT22;43667;53.036;6.740;2023-05-07T04:25:06;10.70;99.90
57833;DHT22;43667;53.036;6.740;2023-05-07T04:27:33;10.70;99.90
57833;DHT22;43667;53.036;6.740;2023-05-07T04:29:58;10.70;99.90
57833;DHT22;43667;53.036;6.740;2023-05-07T04:32:26;10.70;99.90
57833;DHT22;43667;53.036;6.740;2023-05-07T04:34:52;10.70;99.90
57833;DHT22;43667;53.036;6.740;2023-05-07T04:37:17;10.70;99.90
57833;DHT22;43667;53.036;6.740;2023-05-07T04:39:43;10.70;99.90
57833;DHT22;43667;53.036;6.740;2023-05-07T04:42:08;10.70;99.90
57833;DHT22;43667;53.036;6.740;2023-05-07T04:44:35;10.70;99.90
57833;DHT22;43667;53.036;6.740;2023-05-07T04:47:02;10.70;99.90
57833;DHT22;43667;53.036;6.740;2023-05-07T04:49:28;10.70;99.90
57833;DHT22;43667;53.036;6.740;2023-05-07T04:51:53;10.70;99.90
57833;DHT22;43667;53.036;6.740;2023-05-07T04:54:19;10.70;99.90
57833;DHT22;43667;53.036;6.740;2023-05-07T04:56:44;10.80;99.90
57833;DHT22;43667;53.036;6.740;2023-05-07T04:59:10;10.70;99.90
57833;DHT22;43667;53.036;6.740;2023-05-07T05:01:36;10.70;99.90
57833;DHT22;43667;53.036;6.740;2023-05-07T05:04:01;10.60;99.90
57833;DHT22;43667;53.036;6.740;2023-05-07T05:06:27;10.80;99.90
57833;DHT22;43667;53.036;6.740;2023-05-07T05:08:53;10.80;99.90
57833;DHT22;43667;53.036;6.740;2023-05-07T05:11:18;10.80;99.90
57833;DHT22;43667;53.036;6.740;2023-05-07T05:13:44;10.90;99.90
57833;DHT22;43667;53.036;6.740;2023-05-07T05:16:09;10.90;99.90
57833;DHT22;43667;53.036;6.740;2023-05-07T05:18:35;11.30;99.90
57833;DHT22;43667;53.036;6.740;2023-05-07T05:21:01;10.90;99.90
57833;DHT22;43667;53.036;6.740;2023-05-07T05:23:27;10.90;99.90
57833;DHT22;43667;53.036;6.740;2023-05-07T05:25:56;10.80;99.90
57833;DHT22;43667;53.036;6.740;2023-05-07T05:28:23;10.70;99.90
57833;DHT22;43667;53.036;6.740;2023-05-07T05:30:49;10.80;99.90
57833;DHT22;43667;53.036;6.740;2023-05-07T05:33:15;11.00;99.90
57833;DHT22;43667;53.036;6.740;2023-05-07T05:35:41;11.00;99.90
57833;DHT22;43667;53.036;6.740;2023-05-07T05:38:07;11.00;99.90
57833;DHT22;43667;53.036;6.740;2023-05-07T05:40:33;11.00;99.90
57833;DHT22;43667;53.036;6.740;2023-05-07T05:42:59;11.00;99.90
57833;DHT22;43667;53.036;6.740;2023-05-07T05:45:25;11.00;99.90
57833;DHT22;43667;53.036;6.740;2023-05-07T05:47:50;11.10;99.90
57833;DHT22;43667;53.036;6.740;2023-05-07T05:50:16;11.00;99.90
57833;DHT22;43667;53.036;6.740;2023-05-07T05:52:42;11.10;99.90
57833;DHT22;43667;53.036;6.740;2023-05-07T05:55:08;11.00;99.90
57833;DHT22;43667;53.036;6.740;2023-05-07T05:57:33;11.10;99.90
57833;DHT22;43667;53.036;6.740;2023-05-07T06:00:00;11.00;99.90
57833;DHT22;43667;53.036;6.740;2023-05-07T06:02:26;11.10;99.90
57833;DHT22;43667;53.036;6.740;2023-05-07T06:04:51;11.10;99.90
57833;DHT22;43667;53.036;6.740;2023-05-07T06:07:17;11.10;99.90
57833;DHT22;43667;53.036;6.740;2023-05-07T06:09:42;11.10;99.90
57833;DHT22;43667;53.036;6.740;2023-05-07T06:12:08;11.20;99.90
57833;DHT22;43667;53.036;6.740;2023-05-07T06:14:34;11.10;99.90
57833;DHT22;43667;53.036;6.740;2023-05-07T06:16:59;11.20;99.90
57833;DHT22;43667;53.036;6.740;2023-05-07T06:19:45;11.20;99.90
57833;DHT22;43667;53.036;6.740;2023-05-07T06:22:10;11.50;99.90
57833;DHT22;43667;53.036;6.740;2023-05-07T06:24:36;11.20;99.90
57833;DHT22;43667;53.036;6.740;2023-05-07T06:27:02;11.20;99.90
57833;DHT22;43667;53.036;6.740;2023-05-07T06:29:27;11.30;99.90
57833;DHT22;43667;53.036;6.740;2023-05-07T06:31:53;11.20;99.90
57833;DHT22;43667;53.036;6.740;2023-05-07T06:34:19;11.20;99.90
57833;DHT22;43667;53.036;6.740;2023-05-07T06:36:45;11.20;99.90
57833;DHT22;43667;53.036;6.740;2023-05-07T06:39:10;11.20;99.90
57833;DHT22;43667;53.036;6.740;2023-05-07T06:41:36;11.30;99.90
57833;DHT22;43667;53.036;6.740;2023-05-07T06:44:02;11.30;99.90
57833;DHT22;43667;53.036;6.740;2023-05-07T06:46:28;11.20;99.90
57833;DHT22;43667;53.036;6.740;2023-05-07T06:48:54;11.30;99.90
57833;DHT22;43667;53.036;6.740;2023-05-07T06:51:22;11.40;99.90
57833;DHT22;43667;53.036;6.740;2023-05-07T06:53:47;11.30;99.90
57833;DHT22;43667;53.036;6.740;2023-05-07T06:56:13;11.30;99.90
57833;DHT22;43667;53.036;6.740;2023-05-07T06:58:38;11.30;99.90
57833;DHT22;43667;53.036;6.740;2023-05-07T07:01:04;11.50;99.90
57833;DHT22;43667;53.036;6.740;2023-05-07T07:03:30;11.40;99.90
57833;DHT22;43667;53.036;6.740;2023-05-07T07:05:55;11.40;99.90
57833;DHT22;43667;53.036;6.740;2023-05-07T07:08:22;11.90;99.90
57833;DHT22;43667;53.036;6.740;2023-05-07T07:10:48;11.80;99.90
57833;DHT22;43667;53.036;6.740;2023-05-07T07:13:13;11.70;99.90
57833;DHT22;43667;53.036;6.740;2023-05-07T07:15:39;11.60;99.90
57833;DHT22;43667;53.036;6.740;2023-05-07T07:18:06;11.60;99.90
57833;DHT22;43667;53.036;6.740;2023-05-07T07:20:32;11.80;99.90
57833;DHT22;43667;53.036;6.740;2023-05-07T07:22:57;11.90;99.90
57833;DHT22;43667;53.036;6.740;2023-05-07T07:25:23;11.90;99.90
57833;DHT22;43667;53.036;6.740;2023-05-07T07:27:49;12.30;99.90
57833;DHT22;43667;53.036;6.740;2023-05-07T07:30:15;12.00;99.90
57833;DHT22;43667;53.036;6.740;2023-05-07T07:32:41;12.00;99.90
57833;DHT22;43667;53.036;6.740;2023-05-07T07:35:07;12.10;99.90
57833;DHT22;43667;53.036;6.740;2023-05-07T07:37:32;11.90;99.90
57833;DHT22;43667;53.036;6.740;2023-05-07T07:39:58;12.00;99.90
57833;DHT22;43667;53.036;6.740;2023-05-07T07:42:24;12.10;99.90
57833;DHT22;43667;53.036;6.740;2023-05-07T07:44:49;12.10;99.90
57833;DHT22;43667;53.036;6.740;2023-05-07T07:47:15;12.20;99.90
57833;DHT22;43667;53.036;6.740;2023-05-07T07:49:41;12.20;99.90
57833;DHT22;43667;53.036;6.740;2023-05-07T07:52:06;12.10;99.90
57833;DHT22;43667;53.036;6.740;2023-05-07T07:54:32;12.10;99.90
57833;DHT22;43667;53.036;6.740;2023-05-07T07:56:58;12.10;99.90
57833;DHT22;43667;53.036;6.740;2023-05-07T07:59:23;12.10;99.90
57833;DHT22;43667;53.036;6.740;2023-05-07T08:01:49;12.20;99.90
57833;DHT22;43667;53.036;6.740;2023-05-07T08:04:15;12.40;99.90
57833;DHT22;43667;53.036;6.740;2023-05-07T08:06:41;12.50;99.90
57833;DHT22;43667;53.036;6.740;2023-05-07T08:09:07;12.50;99.90
57833;DHT22;43667;53.036;6.740;2023-05-07T08:11:34;12.70;99.90
57833;DHT22;43667;53.036;6.740;2023-05-07T08:13:59;12.60;99.90
57833;DHT22;43667;53.036;6.740;2023-05-07T08:16:25;12.90;99.90
57833;DHT22;43667;53.036;6.740;2023-05-07T08:18:51;12.70;99.90
57833;DHT22;43667;53.036;6.740;2023-05-07T08:21:17;12.70;99.90
57833;DHT22;43667;53.036;6.740;2023-05-07T08:23:43;12.70;99.90
57833;DHT22;43667;53.036;6.740;2023-05-07T08:26:08;13.40;99.90
57833;DHT22;43667;53.036;6.740;2023-05-07T08:28:35;12.90;99.90
57833;DHT22;43667;53.036;6.740;2023-05-07T08:31:00;13.10;99.90
57833;DHT22;43667;53.036;6.740;2023-05-07T08:33:26;13.10;99.90
57833;DHT22;43667;53.036;6.740;2023-05-07T08:35:52;13.20;99.90
57833;DHT22;43667;53.036;6.740;2023-05-07T08:38:18;13.20;99.90
57833;DHT22;43667;53.036;6.740;2023-05-07T08:40:44;13.20;99.90
57833;DHT22;43667;53.036;6.740;2023-05-07T08:43:12;13.20;99.90
57833;DHT22;43667;53.036;6.740;2023-05-07T08:45:40;13.20;99.90
57833;DHT22;43667;53.036;6.740;2023-05-07T08:48:09;13.20;99.90
57833;DHT22;43667;53.036;6.740;2023-05-07T08:50:36;13.40;99.90
57833;DHT22;43667;53.036;6.740;2023-05-07T08:53:05;13.50;99.90
57833;DHT22;43667;53.036;6.740;2023-05-07T08:55:31;13.60;99.90
57833;DHT22;43667;53.036;6.740;2023-05-07T08:57:56;13.70;99.90
57833;DHT22;43667;53.036;6.740;2023-05-07T09:00:22;13.80;99.90
57833;DHT22;43667;53.036;6.740;2023-05-07T09:02:48;14.00;99.90
57833;DHT22;43667;53.036;6.740;2023-05-07T09:05:14;14.20;99.90
57833;DHT22;43667;53.036;6.740;2023-05-07T09:07:39;14.50;99.90
57833;DHT22;43667;53.036;6.740;2023-05-07T09:10:06;14.60;99.90
57833;DHT22;43667;53.036;6.740;2023-05-07T09:12:32;14.60;99.90
57833;DHT22;43667;53.036;6.740;2023-05-07T09:49:39;15.30;99.90
57833;DHT22;43667;53.036;6.740;2023-05-07T09:52:07;15.30;99.90
57833;DHT22;43667;53.036;6.740;2023-05-07T09:54:36;15.50;99.90
57833;DHT22;43667;53.036;6.740;2023-05-07T09:57:04;15.70;99.90
57833;DHT22;43667;53.036;6.740;2023-05-07T09:59:32;16.00;99.90
57833;DHT22;43667;53.036;6.740;2023-05-07T10:01:59;16.20;99.90
57833;DHT22;43667;53.036;6.740;2023-05-07T10:04:28;16.10;99.90
57833;DHT22;43667;53.036;6.740;2023-05-07T10:06:54;16.10;99.90
57833;DHT22;43667;53.036;6.740;2023-05-07T10:09:25;16.20;99.90
57833;DHT22;43667;53.036;6.740;2023-05-07T10:11:52;16.20;99.90
57833;DHT22;43667;53.036;6.740;2023-05-07T10:14:20;16.30;99.90
57833;DHT22;43667;53.036;6.740;2023-05-07T10:16:47;16.40;99.90
57833;DHT22;43667;53.036;6.740;2023-05-07T10:19:14;16.50;99.90
57833;DHT22;43667;53.036;6.740;2023-05-07T10:21:48;16.50;99.90
57833;DHT22;43667;53.036;6.740;2023-05-07T10:24:26;16.70;99.90
57833;DHT22;43667;53.036;6.740;2023-05-07T10:26:53;16.80;99.90
57833;DHT22;43667;53.036;6.740;2023-05-07T10:34:46;17.00;99.90
57833;DHT22;43667;53.036;6.740;2023-05-07T10:37:13;17.10;99.90
57833;DHT22;43667;53.036;6.740;2023-05-07T10:39:39;17.30;99.90
57833;DHT22;43667;53.036;6.740;2023-05-07T10:42:10;17.40;99.90
57833;DHT22;43667;53.036;6.740;2023-05-07T10:44:36;17.40;99.90
57833;DHT22;43667;53.036;6.740;2023-05-07T10:47:16;17.50;99.90
57833;DHT22;43667;53.036;6.740;2023-05-07T10:52:16;17.80;99.90
57833;DHT22;43667;53.036;6.740;2023-05-07T10:54:46;17.80;99.90
57833;DHT22;43667;53.036;6.740;2023-05-07T11:00:03;18.00;99.90
57833;DHT22;43667;53.036;6.740;2023-05-07T11:03:05;18.00;99.90
57833;DHT22;43667;53.036;6.740;2023-05-07T11:05:32;18.00;99.90
57833;DHT22;43667;53.036;6.740;2023-05-07T11:07:59;18.10;99.90
57833;DHT22;43667;53.036;6.740;2023-05-07T11:10:48;18.10;99.90
57833;DHT22;43667;53.036;6.740;2023-05-07T11:13:14;18.20;99.90
57833;DHT22;43667;53.036;6.740;2023-05-07T11:15:45;18.30;99.90
57833;DHT22;43667;53.036;6.740;2023-05-07T11:18:13;18.30;99.90
57833;DHT22;43667;53.036;6.740;2023-05-07T11:20:58;18.30;99.90
57833;DHT22;43667;53.036;6.740;2023-05-07T11:26:06;18.50;99.90
57833;DHT22;43667;53.036;6.740;2023-05-07T11:28:38;18.50;99.90
57833;DHT22;43667;53.036;6.740;2023-05-07T11:31:04;18.50;99.90
57833;DHT22;43667;53.036;6.740;2023-05-07T11:33:30;18.50;99.90
57833;DHT22;43667;53.036;6.740;2023-05-07T11:35:56;18.80;99.90
57833;DHT22;43667;53.036;6.740;2023-05-07T11:38:22;19.00;99.90
57833;DHT22;43667;53.036;6.740;2023-05-07T11:40:55;19.20;99.90
57833;DHT22;43667;53.036;6.740;2023-05-07T11:43:21;19.30;99.90
57833;DHT22;43667;53.036;6.740;2023-05-07T11:45:47;19.40;99.90
57833;DHT22;43667;53.036;6.740;2023-05-07T11:48:13;19.60;99.90
57833;DHT22;43667;53.036;6.740;2023-05-07T11:50:53;19.60;99.90
57833;DHT22;43667;53.036;6.740;2023-05-07T11:53:20;19.60;99.90
57833;DHT22;43667;53.036;6.740;2023-05-07T11:55:46;19.50;99.90
57833;DHT22;43667;53.036;6.740;2023-05-07T11:58:18;19.50;99.90
57833;DHT22;43667;53.036;6.740;2023-05-07T12:00:53;19.50;99.90
57833;DHT22;43667;53.036;6.740;2023-05-07T12:03:20;19.70;99.90
57833;DHT22;43667;53.036;6.740;2023-05-07T12:05:46;19.60;99.90
57833;DHT22;43667;53.036;6.740;2023-05-07T12:08:16;19.40;99.90
57833;DHT22;43667;53.036;6.740;2023-05-07T12:10:43;19.20;99.90
57833;DHT22;43667;53.036;6.740;2023-05-07T12:13:23;19.00;99.90
57833;DHT22;43667;53.036;6.740;2023-05-07T12:15:55;18.80;99.90
57833;DHT22;43667;53.036;6.740;2023-05-07T12:18:22;18.80;99.90
57833;DHT22;43667;53.036;6.740;2023-05-07T12:20:51;18.90;99.90
57833;DHT22;43667;53.036;6.740;2023-05-07T12:23:17;19.10;99.90
57833;DHT22;43667;53.036;6.740;2023-05-07T12:25:43;19.20;99.90
57833;DHT22;43667;53.036;6.740;2023-05-07T12:28:18;19.30;99.90
57833;DHT22;43667;53.036;6.740;2023-05-07T12:30:46;19.60;99.90
57833;DHT22;43667;53.036;6.740;2023-05-07T12:33:12;19.50;99.90
57833;DHT22;43667;53.036;6.740;2023-05-07T12:35:39;19.60;99.90
57833;DHT22;43667;53.036;6.740;2023-05-07T12:38:11;19.80;99.90
57833;DHT22;43667;53.036;6.740;2023-05-07T12:40:47;20.10;99.90
57833;DHT22;43667;53.036;6.740;2023-05-07T12:43:21;20.30;99.90
57833;DHT22;43667;53.036;6.740;2023-05-07T12:45:49;20.40;99.90
57833;DHT22;43667;53.036;6.740;2023-05-07T12:48:15;20.60;99.90
57833;DHT22;43667;53.036;6.740;2023-05-07T12:50:41;20.70;99.90
57833;DHT22;43667;53.036;6.740;2023-05-07T12:53:10;20.60;99.90
57833;DHT22;43667;53.036;6.740;2023-05-07T12:55:49;20.50;99.90
57833;DHT22;43667;53.036;6.740;2023-05-07T13:00:42;20.80;99.90
57833;DHT22;43667;53.036;6.740;2023-05-07T13:03:09;20.30;99.90
57833;DHT22;43667;53.036;6.740;2023-05-07T13:05:37;20.40;99.90
57833;DHT22;43667;53.036;6.740;2023-05-07T13:08:03;19.90;99.90
57833;DHT22;43667;53.036;6.740;2023-05-07T13:10:28;20.00;99.90
57833;DHT22;43667;53.036;6.740;2023-05-07T13:12:54;19.90;99.90
57833;DHT22;43667;53.036;6.740;2023-05-07T13:15:20;19.90;99.90
57833;DHT22;43667;53.036;6.740;2023-05-07T13:17:46;19.80;99.90
57833;DHT22;43667;53.036;6.740;2023-05-07T13:20:12;19.90;99.90
57833;DHT22;43667;53.036;6.740;2023-05-07T13:22:39;20.00;99.90
57833;DHT22;43667;53.036;6.740;2023-05-07T13:25:05;20.10;99.90
57833;DHT22;43667;53.036;6.740;2023-05-07T13:27:31;20.20;99.90
57833;DHT22;43667;53.036;6.740;2023-05-07T13:29:57;20.30;99.90
57833;DHT22;43667;53.036;6.740;2023-05-07T13:32:22;20.40;99.90
57833;DHT22;43667;53.036;6.740;2023-05-07T13:34:48;20.40;99.90
57833;DHT22;43667;53.036;6.740;2023-05-07T13:37:13;20.60;99.90
57833;DHT22;43667;53.036;6.740;2023-05-07T13:39:39;20.70;99.90
57833;DHT22;43667;53.036;6.740;2023-05-07T13:42:06;20.80;99.90
57833;DHT22;43667;53.036;6.740;2023-05-07T13:44:32;20.80;99.90
57833;DHT22;43667;53.036;6.740;2023-05-07T13:46:57;20.80;99.90
57833;DHT22;43667;53.036;6.740;2023-05-07T13:49:23;20.70;99.90
57833;DHT22;43667;53.036;6.740;2023-05-07T13:51:49;20.60;99.90
57833;DHT22;43667;53.036;6.740;2023-05-07T13:54:15;20.60;99.90
57833;DHT22;43667;53.036;6.740;2023-05-07T13:56:41;20.60;99.90
57833;DHT22;43667;53.036;6.740;2023-05-07T13:59:06;20.70;99.90
57833;DHT22;43667;53.036;6.740;2023-05-07T14:01:32;20.70;99.90
57833;DHT22;43667;53.036;6.740;2023-05-07T14:03:58;20.90;99.90
57833;DHT22;43667;53.036;6.740;2023-05-07T14:06:24;20.80;99.90
57833;DHT22;43667;53.036;6.740;2023-05-07T14:08:50;20.80;99.90
57833;DHT22;43667;53.036;6.740;2023-05-07T14:11:16;20.90;99.90
57833;DHT22;43667;53.036;6.740;2023-05-07T14:13:41;21.00;99.90
57833;DHT22;43667;53.036;6.740;2023-05-07T14:16:07;21.10;99.90
57833;DHT22;43667;53.036;6.740;2023-05-07T14:18:33;21.20;99.90
57833;DHT22;43667;53.036;6.740;2023-05-07T14:20:59;21.10;99.30
57833;DHT22;43667;53.036;6.740;2023-05-07T14:23:25;21.10;99.90
57833;DHT22;43667;53.036;6.740;2023-05-07T14:25:52;21.20;99.90
57833;DHT22;43667;53.036;6.740;2023-05-07T14:28:18;21.20;99.90
57833;DHT22;43667;53.036;6.740;2023-05-07T14:30:44;21.00;99.90
57833;DHT22;43667;53.036;6.740;2023-05-07T14:33:10;21.00;99.90
57833;DHT22;43667;53.036;6.740;2023-05-07T14:35:35;20.90;99.50
57833;DHT22;43667;53.036;6.740;2023-05-07T14:38:01;20.80;99.90
57833;DHT22;43667;53.036;6.740;2023-05-07T14:40:27;21.00;99.90
57833;DHT22;43667;53.036;6.740;2023-05-07T14:42:52;21.00;99.90
57833;DHT22;43667;53.036;6.740;2023-05-07T14:45:18;20.90;99.90
57833;DHT22;43667;53.036;6.740;2023-05-07T14:47:43;20.70;99.90
57833;DHT22;43667;53.036;6.740;2023-05-07T14:50:09;20.80;99.50
57833;DHT22;43667;53.036;6.740;2023-05-07T14:52:35;20.90;99.90
57833;DHT22;43667;53.036;6.740;2023-05-07T14:55:00;21.00;99.90
57833;DHT22;43667;53.036;6.740;2023-05-07T14:57:28;21.20;99.90
57833;DHT22;43667;53.036;6.740;2023-05-07T14:59:54;21.20;99.90
57833;DHT22;43667;53.036;6.740;2023-05-07T15:02:20;21.20;99.90
57833;DHT22;43667;53.036;6.740;2023-05-07T15:04:45;21.10;99.90
57833;DHT22;43667;53.036;6.740;2023-05-07T15:07:12;21.10;99.90
57833;DHT22;43667;53.036;6.740;2023-05-07T15:09:41;20.80;99.90
57833;DHT22;43667;53.036;6.740;2023-05-07T15:12:07;20.90;99.90
57833;DHT22;43667;53.036;6.740;2023-05-07T15:14:33;20.80;99.90
57833;DHT22;43667;53.036;6.740;2023-05-07T15:16:58;21.40;99.90
57833;DHT22;43667;53.036;6.740;2023-05-07T15:19:24;21.40;99.90
57833;DHT22;43667;53.036;6.740;2023-05-07T15:21:57;20.90;99.90
57833;DHT22;43667;53.036;6.740;2023-05-07T15:24:24;21.20;99.90
57833;DHT22;43667;53.036;6.740;2023-05-07T15:26:52;21.30;99.90
57833;DHT22;43667;53.036;6.740;2023-05-07T15:29:17;21.20;99.90
57833;DHT22;43667;53.036;6.740;2023-05-07T15:31:43;21.20;99.90
57833;DHT22;43667;53.036;6.740;2023-05-07T15:34:09;21.10;99.90
57833;DHT22;43667;53.036;6.740;2023-05-07T15:36:34;21.10;99.90
57833;DHT22;43667;53.036;6.740;2023-05-07T15:39:00;20.60;99.90
57833;DHT22;43667;53.036;6.740;2023-05-07T15:41:28;20.80;99.90
57833;DHT22;43667;53.036;6.740;2023-05-07T15:43:53;20.80;99.90
57833;DHT22;43667;53.036;6.740;2023-05-07T15:46:23;21.10;99.90
57833;DHT22;43667;53.036;6.740;2023-05-07T15:48:50;21.60;99.90
57833;DHT22;43667;53.036;6.740;2023-05-07T15:51:16;22.00;99.90
57833;DHT22;43667;53.036;6.740;2023-05-07T15:53:43;22.30;99.90
57833;DHT22;43667;53.036;6.740;2023-05-07T15:56:08;22.30;99.90
57833;DHT22;43667;53.036;6.740;2023-05-07T15:58:35;21.70;99.90
57833;DHT22;43667;53.036;6.740;2023-05-07T16:01:01;21.50;99.90
57833;DHT22;43667;53.036;6.740;2023-05-07T16:03:27;21.20;99.90
57833;DHT22;43667;53.036;6.740;2023-05-07T16:05:54;21.00;99.90
57833;DHT22;43667;53.036;6.740;2023-05-07T16:08:22;20.70;99.90
57833;DHT22;43667;53.036;6.740;2023-05-07T16:10:48;21.10;99.90
57833;DHT22;43667;53.036;6.740;2023-05-07T16:13:14;20.30;99.90
57833;DHT22;43667;53.036;6.740;2023-05-07T16:15:46;20.40;99.90
57833;DHT22;43667;53.036;6.740;2023-05-07T16:18:12;20.30;99.90